Time;durP1;ratioP1;P1;durP2;ratioP2;P2;SDS_P1;SDS_P2;PMS_P1;PMS_P2;Temp;Humidity;BMP_temperature;BMP_pressure;BME280_temperature;BME280_humidity;BME280_pressure;Samples;Min_cycle;Max_cycle;Signal;HPM_P1;HPM_P2
2021/01/20 00:01:32;;;;;;;5.82;3.83;;;14.50;99.90;;;;;;5004131;28;20058;-62
2021/01/20 00:03:57;;;;;;;4.20;3.13;;;14.50;99.90;;;;;;4996033;28;20488;-68
2021/01/20 00:06:23;;;;;;;5.00;3.28;;;14.50;99.90;;;;;;4997939;28;20084;-68
2021/01/20 00:08:49;;;;;;;5.20;3.33;;;14.50;99.90;;;;;;5011417;28;20113;-69
2021/01/20 00:11:14;;;;;;;5.93;3.28;;;14.40;99.90;;;;;;5014827;28;20032;-68
2021/01/20 00:13:40;;;;;;;5.03;3.28;;;14.40;99.90;;;;;;5014854;28;20390;-68
2021/01/20 00:16:05;;;;;;;5.82;3.70;;;14.40;99.90;;;;;;5012973;28;20040;-68
2021/01/20 00:18:31;;;;;;;6.10;3.42;;;14.40;99.90;;;;;;5015341;28;20028;-68
2021/01/20 00:20:57;;;;;;;5.45;3.40;;;14.40;99.90;;;;;;5013268;28;20032;-68
2021/01/20 00:23:22;;;;;;;5.10;3.20;;;14.40;99.90;;;;;;5010996;28;20026;-68
2021/01/20 00:25:48;;;;;;;6.07;3.35;;;14.30;99.90;;;;;;4995311;28;20023;-67
2021/01/20 00:28:13;;;;;;;5.57;3.28;;;14.30;99.90;;;;;;5008900;28;20495;-68
2021/01/20 00:30:39;;;;;;;5.57;3.95;;;14.30;99.90;;;;;;5014216;28;20041;-67
2021/01/20 00:33:05;;;;;;;5.95;3.70;;;14.30;99.90;;;;;;5014775;28;20034;-67
2021/01/20 00:35:31;;;;;;;6.32;3.90;;;14.20;99.90;;;;;;5000053;28;20145;-67
2021/01/20 00:37:56;;;;;;;6.88;3.80;;;14.20;99.90;;;;;;5005972;28;20463;-68
2021/01/20 00:40:22;;;;;;;5.97;4.28;;;14.20;99.90;;;;;;4995227;28;20092;-68
2021/01/20 00:42:47;;;;;;;6.15;3.88;;;14.20;99.90;;;;;;5012731;28;20042;-67
2021/01/20 00:45:13;;;;;;;4.70;3.30;;;14.20;99.90;;;;;;5014642;28;20061;-63
2021/01/20 00:47:39;;;;;;;6.32;3.72;;;14.20;99.90;;;;;;5012586;28;20026;-62
2021/01/20 00:50:05;;;;;;;6.18;3.80;;;14.20;99.90;;;;;;5014529;28;20465;-65
2021/01/20 00:52:31;;;;;;;6.00;3.60;;;14.10;99.90;;;;;;5014301;28;20046;-64
2021/01/20 00:54:57;;;;;;;5.25;3.80;;;14.10;99.90;;;;;;5014777;28;20025;-65
2021/01/20 00:57:22;;;;;;;5.35;3.63;;;14.10;99.90;;;;;;5003716;28;20030;-64
2021/01/20 00:59:48;;;;;;;7.63;4.10;;;14.00;99.90;;;;;;4994561;28;20033;-65
2021/01/20 01:02:13;;;;;;;6.90;3.95;;;14.00;99.90;;;;;;5010521;28;20073;-64
2021/01/20 01:04:40;;;;;;;6.13;4.10;;;14.00;99.90;;;;;;5000666;28;20042;-67
2021/01/20 01:07:05;;;;;;;7.25;3.95;;;14.00;99.90;;;;;;4994357;28;20438;-61
2021/01/20 01:09:31;;;;;;;6.47;3.85;;;14.00;99.90;;;;;;5007225;28;20026;-65
2021/01/20 01:11:57;;;;;;;6.93;4.05;;;14.00;99.90;;;;;;5013408;28;20057;-66
2021/01/20 01:14:22;;;;;;;8.32;3.90;;;14.00;99.90;;;;;;5014117;28;20034;-65
2021/01/20 01:16:48;;;;;;;5.68;3.95;;;14.00;99.90;;;;;;5012015;28;20501;-66
2021/01/20 01:19:13;;;;;;;5.18;3.50;;;13.90;99.90;;;;;;5014052;28;20069;-67
2021/01/20 01:21:39;;;;;;;5.65;3.70;;;14.00;99.90;;;;;;5012057;28;20033;-68
2021/01/20 01:24:05;;;;;;;6.88;4.35;;;13.90;99.90;;;;;;5013982;28;20037;-69
2021/01/20 01:26:31;;;;;;;5.20;3.97;;;14.00;99.90;;;;;;5014078;28;20049;-68
2021/01/20 01:28:57;;;;;;;5.60;4.10;;;13.90;99.90;;;;;;5013273;28;20036;-62
2021/01/20 01:31:23;;;;;;;6.80;3.90;;;13.90;99.90;;;;;;5001646;28;20030;-69
2021/01/20 01:33:48;;;;;;;5.30;3.75;;;13.90;99.90;;;;;;5013247;28;20128;-69
2021/01/20 01:36:14;;;;;;;5.22;4.03;;;13.90;99.90;;;;;;5013473;28;20028;-68
2021/01/20 01:38:40;;;;;;;5.53;3.60;;;13.90;99.90;;;;;;5013169;28;20025;-68
2021/01/20 01:41:05;;;;;;;7.07;4.28;;;14.00;99.90;;;;;;5013634;28;20433;-69
2021/01/20 01:43:31;;;;;;;5.88;3.63;;;13.90;99.90;;;;;;5013369;28;20030;-68
2021/01/20 01:45:57;;;;;;;7.25;4.00;;;13.90;99.90;;;;;;5013440;28;20049;-67
2021/01/20 01:48:22;;;;;;;5.80;4.18;;;13.90;99.90;;;;;;5013336;28;20482;-68
2021/01/20 01:50:48;;;;;;;6.35;3.72;;;13.90;99.90;;;;;;5013082;28;20374;-68
2021/01/20 01:53:14;;;;;;;5.15;3.53;;;14.00;99.90;;;;;;5012896;28;20042;-69
2021/01/20 01:55:41;;;;;;;6.57;3.85;;;13.90;99.90;;;;;;5013157;28;20044;-69
2021/01/20 01:58:07;;;;;;;5.93;3.85;;;13.90;99.90;;;;;;5012910;28;20029;-68
2021/01/20 02:00:33;;;;;;;5.47;3.72;;;13.90;99.90;;;;;;5012608;28;20033;-65
2021/01/20 02:03:00;;;;;;;5.68;4.15;;;13.90;99.90;;;;;;5012410;28;20022;-65
2021/01/20 02:05:26;;;;;;;7.63;4.05;;;13.90;99.90;;;;;;5013092;28;20415;-63
2021/01/20 02:07:52;;;;;;;4.95;3.50;;;13.80;99.90;;;;;;5012560;28;20445;-67
2021/01/20 02:10:18;;;;;;;5.10;3.40;;;13.90;99.90;;;;;;5012549;28;20061;-66
2021/01/20 02:13:25;;;;;;;5.22;3.83;;;13.90;99.90;;;;;;5012656;28;20156;-67
2021/01/20 02:16:05;;;;;;;6.13;3.85;;;13.80;99.90;;;;;;5011964;28;20073;-67
2021/01/20 02:18:34;;;;;;;5.78;3.85;;;13.90;99.90;;;;;;5013267;28;20390;-65
2021/01/20 02:21:34;;;;;;;5.00;3.72;;;13.80;99.90;;;;;;5012918;28;20083;-62
2021/01/20 02:24:05;;;;;;;4.47;3.53;;;13.90;99.90;;;;;;5012817;28;20076;-65
2021/01/20 02:27:04;;;;;;;6.32;3.85;;;13.80;99.90;;;;;;5012683;28;20379;-67
2021/01/20 02:29:37;;;;;;;5.18;4.07;;;13.80;99.90;;;;;;5004513;28;20030;-67
2021/01/20 02:32:06;;;;;;;7.22;3.80;;;13.80;99.90;;;;;;5012531;28;20067;-67
2021/01/20 02:34:34;;;;;;;6.03;3.90;;;13.80;99.90;;;;;;5012334;28;20041;-62
2021/01/20 02:37:02;;;;;;;5.50;3.72;;;13.80;99.90;;;;;;5012895;28;20474;-66
2021/01/20 02:39:29;;;;;;;5.00;3.70;;;13.80;99.90;;;;;;5012423;28;20030;-62
2021/01/20 02:42:05;;;;;;;6.20;3.75;;;13.80;99.90;;;;;;5012048;28;20045;-67
2021/01/20 02:44:35;;;;;;;5.80;3.67;;;13.80;99.90;;;;;;5012448;28;20483;-65
2021/01/20 02:47:01;;;;;;;6.32;3.95;;;13.80;99.90;;;;;;5012483;28;20030;-65
2021/01/20 02:49:28;;;;;;;4.68;3.85;;;13.80;99.90;;;;;;5012475;28;20018;-66
2021/01/20 02:52:10;;;;;;;5.78;3.70;;;13.80;99.90;;;;;;5011785;28;20390;-63
2021/01/20 02:54:38;;;;;;;6.93;4.30;;;13.80;99.90;;;;;;5012009;28;20161;-63
2021/01/20 02:57:05;;;;;;;6.55;3.47;;;13.80;99.90;;;;;;5012275;28;20381;-62
2021/01/20 02:59:32;;;;;;;6.53;3.75;;;13.70;99.90;;;;;;5012512;28;20033;-66
2021/01/20 03:02:05;;;;;;;5.63;3.35;;;13.80;99.90;;;;;;5012180;28;20030;-66
2021/01/20 03:04:32;;;;;;;5.50;3.50;;;13.80;99.90;;;;;;5012392;28;20137;-63
2021/01/20 03:07:00;;;;;;;6.85;3.58;;;13.80;99.90;;;;;;5012010;28;20386;-68
2021/01/20 03:09:26;;;;;;;6.68;3.90;;;13.80;99.90;;;;;;5011827;28;20037;-67
2021/01/20 03:11:52;;;;;;;5.47;3.50;;;13.70;99.90;;;;;;5011826;28;20092;-64
2021/01/20 03:14:24;;;;;;;6.80;3.80;;;13.70;99.90;;;;;;5011597;28;20474;-63
2021/01/20 03:16:50;;;;;;;7.40;3.92;;;13.70;99.90;;;;;;5011722;28;20030;-67
2021/01/20 03:19:16;;;;;;;5.88;3.47;;;13.70;99.90;;;;;;5011884;28;20486;-63
2021/01/20 03:21:42;;;;;;;4.68;3.05;;;13.70;99.90;;;;;;5011406;28;20047;-66
2021/01/20 03:24:08;;;;;;;7.70;4.00;;;13.70;99.90;;;;;;5011938;28;20524;-65
2021/01/20 03:26:34;;;;;;;6.47;3.63;;;13.70;99.90;;;;;;5011528;28;20026;-67
2021/01/20 03:29:00;;;;;;;6.35;3.35;;;13.70;99.90;;;;;;5011792;28;20136;-62
2021/01/20 03:31:26;;;;;;;6.80;4.15;;;13.70;99.90;;;;;;5011353;28;20026;-62
2021/01/20 03:33:52;;;;;;;4.80;3.40;;;13.70;99.90;;;;;;5010314;28;20041;-63
2021/01/20 03:36:18;;;;;;;5.72;3.53;;;13.70;99.90;;;;;;5011744;28;20033;-64
2021/01/20 03:38:44;;;;;;;5.20;3.25;;;13.70;99.90;;;;;;5011190;28;20113;-62
2021/01/20 03:41:09;;;;;;;4.95;3.22;;;13.60;99.90;;;;;;5011587;28;20050;-63
2021/01/20 03:43:35;;;;;;;5.38;3.30;;;13.60;99.90;;;;;;5011596;28;20029;-67
2021/01/20 03:46:00;;;;;;;5.68;3.40;;;13.60;99.90;;;;;;5011689;28;20026;-68
2021/01/20 03:48:26;;;;;;;5.00;3.35;;;13.60;99.90;;;;;;5011606;28;20026;-69
2021/01/20 03:50:52;;;;;;;5.35;3.22;;;13.60;99.90;;;;;;5011301;28;20049;-67
2021/01/20 03:53:17;;;;;;;4.35;3.30;;;13.60;99.90;;;;;;5011475;28;20490;-67
2021/01/20 03:55:43;;;;;;;4.55;2.97;;;13.60;99.90;;;;;;5011123;28;20533;-67
2021/01/20 03:58:09;;;;;;;4.88;3.20;;;13.60;99.90;;;;;;5011283;28;20363;-64
2021/01/20 04:00:35;;;;;;;3.90;3.13;;;13.60;99.90;;;;;;5010965;28;20462;-68
2021/01/20 04:03:00;;;;;;;6.82;3.72;;;13.60;99.90;;;;;;5011785;28;20498;-69
2021/01/20 04:05:26;;;;;;;5.50;3.25;;;13.60;99.90;;;;;;5011291;28;20034;-70
2021/01/20 04:07:52;;;;;;;4.53;3.25;;;13.60;99.90;;;;;;5011195;28;20033;-68
2021/01/20 04:10:17;;;;;;;3.92;2.90;;;13.60;99.90;;;;;;5011220;28;20075;-68
2021/01/20 04:12:43;;;;;;;5.97;3.17;;;13.60;99.90;;;;;;5010804;28;20520;-68
2021/01/20 04:15:09;;;;;;;6.55;3.53;;;13.50;99.90;;;;;;5011360;28;20089;-68
2021/01/20 04:17:36;;;;;;;4.93;3.22;;;13.60;99.90;;;;;;5010970;28;20029;-68
2021/01/20 04:20:04;;;;;;;5.35;3.15;;;13.50;99.90;;;;;;5011554;28;20517;-65
2021/01/20 04:22:29;;;;;;;5.68;3.25;;;13.50;99.90;;;;;;5010966;28;20120;-62
2021/01/20 04:24:55;;;;;;;4.25;3.35;;;13.50;99.90;;;;;;5011028;28;20470;-67
2021/01/20 04:27:20;;;;;;;4.97;2.78;;;13.50;99.90;;;;;;5010989;28;20360;-69
2021/01/20 04:29:46;;;;;;;4.32;2.85;;;13.60;99.90;;;;;;5010747;28;20057;-69
2021/01/20 04:32:12;;;;;;;6.47;2.90;;;13.50;99.90;;;;;;5010721;28;20113;-68
2021/01/20 04:34:37;;;;;;;4.78;2.80;;;13.60;99.90;;;;;;5010599;28;20045;-69
2021/01/20 04:37:03;;;;;;;4.20;2.70;;;13.60;99.90;;;;;;5010821;28;20038;-67
2021/01/20 04:39:29;;;;;;;5.40;2.90;;;13.60;99.90;;;;;;5010774;28;20041;-68
2021/01/20 04:41:55;;;;;;;4.30;2.85;;;13.50;99.90;;;;;;5010443;28;20418;-68
2021/01/20 04:44:21;;;;;;;5.80;2.90;;;13.50;99.90;;;;;;5010889;28;20088;-68
2021/01/20 04:46:47;;;;;;;7.50;2.65;;;13.50;99.90;;;;;;5014423;28;20022;-69
2021/01/20 04:49:17;;;;;;;5.35;2.80;;;13.50;99.90;;;;;;5014634;28;20026;-71
2021/01/20 04:51:43;;;;;;;3.63;2.53;;;13.50;99.90;;;;;;5014383;28;20030;-70
2021/01/20 04:54:13;;;;;;;5.30;2.72;;;13.50;99.90;;;;;;5014093;28;20088;-69
2021/01/20 04:56:39;;;;;;;4.28;2.53;;;13.50;99.90;;;;;;5014030;28;20037;-71
2021/01/20 04:59:05;;;;;;;4.63;2.85;;;13.50;99.90;;;;;;5013991;28;20033;-67
2021/01/20 05:01:33;;;;;;;4.28;2.95;;;13.50;99.90;;;;;;5014470;28;20030;-71
2021/01/20 05:04:02;;;;;;;4.68;2.70;;;13.50;99.90;;;;;;5014605;28;20076;-70
2021/01/20 05:06:28;;;;;;;4.35;2.28;;;13.50;99.90;;;;;;5014088;28;20022;-67
2021/01/20 05:08:54;;;;;;;4.22;2.45;;;13.50;99.90;;;;;;5013528;28;20022;-66
2021/01/20 05:11:35;;;;;;;4.68;2.63;;;13.50;99.90;;;;;;5013944;28;20120;-66
2021/01/20 05:14:16;;;;;;;3.15;2.50;;;13.50;99.90;;;;;;5013702;28;20041;-68
2021/01/20 05:16:43;;;;;;;5.55;2.60;;;13.50;99.90;;;;;;5013925;28;20014;-65
2021/01/20 05:19:10;;;;;;;4.07;2.78;;;13.50;99.90;;;;;;5013788;28;20108;-62
2021/01/20 05:21:35;;;;;;;5.35;2.45;;;13.50;99.90;;;;;;5013896;28;20105;-62
2021/01/20 05:24:30;;;;;;;4.78;2.75;;;13.50;99.90;;;;;;5014084;28;20533;-64
2021/01/20 05:26:56;;;;;;;3.83;2.47;;;13.50;99.90;;;;;;5009206;28;20038;-67
2021/01/20 05:29:22;;;;;;;6.60;2.40;;;13.50;99.90;;;;;;5013462;28;20038;-63
2021/01/20 05:31:48;;;;;;;4.20;2.70;;;13.50;99.90;;;;;;5013650;28;20104;-65
2021/01/20 05:34:28;;;;;;;5.35;2.30;;;13.50;99.90;;;;;;5013364;28;20452;-66
2021/01/20 05:37:02;;;;;;;4.05;2.70;;;13.50;99.90;;;;;;5013634;28;20104;-68
2021/01/20 05:39:28;;;;;;;3.88;2.20;;;13.50;99.90;;;;;;5013294;28;20026;-62
2021/01/20 05:42:10;;;;;;;4.45;2.72;;;13.50;99.90;;;;;;5012958;28;20040;-61
2021/01/20 05:44:36;;;;;;;4.43;2.60;;;13.50;99.90;;;;;;5013365;28;20034;-66
2021/01/20 05:47:12;;;;;;;3.88;2.53;;;13.50;99.90;;;;;;5013365;28;20026;-61
2021/01/20 05:49:39;;;;;;;3.47;2.25;;;13.50;99.90;;;;;;5012997;28;20040;-64
2021/01/20 05:52:15;;;;;;;4.25;2.25;;;13.40;99.90;;;;;;5013526;28;20033;-64
2021/01/20 05:54:41;;;;;;;4.50;2.22;;;13.50;99.90;;;;;;4993528;28;20493;-63
2021/01/20 05:57:18;;;;;;;4.35;2.30;;;13.40;99.90;;;;;;4992980;28;20102;-63
2021/01/20 05:59:45;;;;;;;3.20;2.35;;;13.50;99.90;;;;;;5012855;28;20458;-67
2021/01/20 06:02:13;;;;;;;5.05;2.33;;;13.50;99.90;;;;;;5013184;28;20034;-68
2021/01/20 06:04:39;;;;;;;6.45;2.20;;;13.50;99.90;;;;;;5012995;28;20042;-68
2021/01/20 06:07:07;;;;;;;4.10;2.35;;;13.50;99.90;;;;;;5013287;28;20041;-67
2021/01/20 06:09:35;;;;;;;4.35;2.03;;;13.50;99.90;;;;;;5012388;28;20073;-66
2021/01/20 06:12:04;;;;;;;3.85;2.22;;;13.40;99.90;;;;;;5013567;28;20022;-69
2021/01/20 06:14:30;;;;;;;2.97;2.45;;;13.50;99.90;;;;;;5013060;28;20490;-67
2021/01/20 06:17:14;;;;;;;4.72;2.30;;;13.40;99.90;;;;;;5012532;28;20034;-68
2021/01/20 06:19:46;;;;;;;3.53;2.20;;;13.50;99.90;;;;;;5012762;28;20022;-68
2021/01/20 06:22:18;;;;;;;3.95;2.20;;;13.50;99.90;;;;;;5012907;28;20034;-68
2021/01/20 06:24:46;;;;;;;3.65;2.40;;;13.40;99.90;;;;;;5012753;28;20124;-66
2021/01/20 06:27:13;;;;;;;3.10;1.90;;;13.50;99.90;;;;;;5011591;28;20030;-68
2021/01/20 06:29:46;;;;;;;4.28;2.13;;;13.40;99.90;;;;;;5011926;28;20029;-67
2021/01/20 06:32:18;;;;;;;3.58;1.90;;;13.40;99.90;;;;;;5013046;28;20033;-66
2021/01/20 06:34:53;;;;;;;3.17;2.10;;;13.50;99.90;;;;;;5012623;28;20048;-68
2021/01/20 06:37:38;;;;;;;2.95;2.10;;;13.50;99.90;;;;;;5012358;28;20030;-67
2021/01/20 06:40:24;;;;;;;4.50;2.13;;;13.40;99.90;;;;;;5012361;28;20033;-67
2021/01/20 06:42:51;;;;;;;3.13;2.00;;;13.50;99.90;;;;;;5012211;28;20393;-68
2021/01/20 06:45:22;;;;;;;3.40;1.98;;;13.40;99.90;;;;;;5012048;28;20126;-67
2021/01/20 06:48:00;;;;;;;3.60;1.70;;;13.60;99.90;;;;;;5011990;28;20109;-64
2021/01/20 06:50:27;;;;;;;3.78;1.85;;;14.00;99.90;;;;;;5012745;28;20026;-66
2021/01/20 06:53:03;;;;;;;5.75;1.80;;;14.30;99.90;;;;;;5011957;28;20038;-65
2021/01/20 06:55:37;;;;;;;2.65;1.30;;;14.50;99.90;;;;;;5012447;28;20030;-61
2021/01/20 06:58:20;;;;;;;2.55;1.42;;;14.70;99.90;;;;;;5011877;28;20029;-62
2021/01/20 07:01:00;;;;;;;2.60;1.52;;;14.90;99.90;;;;;;5009864;28;20030;-61
2021/01/20 07:03:48;;;;;;;3.17;1.60;;;15.10;99.90;;;;;;5012259;28;20060;-64
2021/01/20 07:06:35;;;;;;;3.83;1.70;;;15.30;99.90;;;;;;5011299;28;20096;-64
2021/01/20 07:09:11;;;;;;;3.88;2.15;;;14.90;99.90;;;;;;5011352;28;20022;-65
2021/01/20 07:11:55;;;;;;;3.10;2.05;;;14.40;99.90;;;;;;5011299;28;20045;-60
2021/01/20 07:14:33;;;;;;;2.88;2.00;;;14.20;99.90;;;;;;5011863;28;20437;-60
2021/01/20 07:17:00;;;;;;;5.03;1.92;;;14.20;99.90;;;;;;5012190;28;20029;-65
2021/01/20 07:19:26;;;;;;;4.80;1.77;;;14.20;99.90;;;;;;5011557;28;20037;-67
2021/01/20 07:21:53;;;;;;;4.32;1.70;;;14.30;99.90;;;;;;5010994;28;20117;-66
2021/01/20 07:24:19;;;;;;;3.67;1.70;;;14.30;99.90;;;;;;5011644;28;20415;-68
2021/01/20 07:26:45;;;;;;;3.28;1.50;;;14.30;99.90;;;;;;5011476;28;20021;-69
2021/01/20 07:29:18;;;;;;;4.07;1.70;;;14.30;99.90;;;;;;5011403;28;20053;-67
2021/01/20 07:31:49;;;;;;;3.00;1.50;;;14.30;99.90;;;;;;5011444;28;20041;-68
2021/01/20 07:34:16;;;;;;;3.22;1.67;;;14.30;99.90;;;;;;5011308;28;20030;-68
2021/01/20 07:36:42;;;;;;;3.88;1.75;;;14.30;99.90;;;;;;5011349;28;20194;-65
2021/01/20 07:39:21;;;;;;;3.22;1.50;;;14.30;99.90;;;;;;5010674;28;20382;-68
2021/01/20 07:41:53;;;;;;;8.05;1.85;;;14.30;99.90;;;;;;5011301;28;20497;-68
2021/01/20 07:44:20;;;;;;;5.20;1.70;;;14.30;99.90;;;;;;5011536;28;20048;-68
2021/01/20 07:46:59;;;;;;;5.25;1.95;;;14.20;99.90;;;;;;5008651;28;20556;-65
2021/01/20 07:49:25;;;;;;;4.72;1.67;;;14.20;99.90;;;;;;5011004;28;20037;-61
2021/01/20 07:52:03;;;;;;;3.13;1.52;;;14.20;99.90;;;;;;5010967;28;20025;-66
2021/01/20 07:54:39;;;;;;;1.98;1.42;;;14.20;99.90;;;;;;5010011;28;20045;-65
2021/01/20 07:57:06;;;;;;;4.05;1.50;;;14.20;99.90;;;;;;5010462;28;20068;-65
2021/01/20 07:59:32;;;;;;;6.50;1.98;;;14.30;99.90;;;;;;5010038;28;20029;-61
2021/01/20 08:02:11;;;;;;;2.88;1.77;;;14.40;99.90;;;;;;5005861;28;20348;-65
2021/01/20 08:04:37;;;;;;;3.10;1.65;;;14.80;99.90;;;;;;5010300;28;20554;-65
2021/01/20 08:07:03;;;;;;;2.25;1.55;;;15.90;99.90;;;;;;5011264;28;20041;-64
2021/01/20 08:09:40;;;;;;;3.80;1.63;;;16.60;99.90;;;;;;5011560;28;20092;-63
2021/01/20 08:12:10;;;;;;;2.78;1.17;;;17.10;99.90;;;;;;5010924;28;20022;-67
2021/01/20 08:14:39;;;;;;;2.45;1.25;;;17.60;99.90;;;;;;5010813;28;20413;-67
2021/01/20 08:17:05;;;;;;;2.20;1.13;;;17.80;99.90;;;;;;5010444;28;20026;-64
2021/01/20 08:19:34;;;;;;;2.53;0.80;;;18.60;99.90;;;;;;5011843;28;20085;-68
2021/01/20 08:22:12;;;;;;;1.50;0.60;;;19.00;99.90;;;;;;5014798;28;20037;-68
2021/01/20 08:24:43;;;;;;;2.15;0.80;;;19.40;99.90;;;;;;5014988;28;20092;-64
2021/01/20 08:27:09;;;;;;;1.80;0.80;;;19.70;99.90;;;;;;5014429;28;20033;-63
2021/01/20 08:29:47;;;;;;;1.38;0.60;;;19.80;99.90;;;;;;5014159;28;20073;-64
2021/01/20 08:32:14;;;;;;;2.28;0.70;;;19.00;99.90;;;;;;5014812;28;20030;-62
2021/01/20 08:34:41;;;;;;;1.35;0.70;;;18.30;99.90;;;;;;5014137;28;20057;-66
2021/01/20 08:37:18;;;;;;;1.50;0.73;;;18.90;99.90;;;;;;5014631;28;20421;-66
2021/01/20 08:40:01;;;;;;;1.13;0.70;;;19.50;99.90;;;;;;5013993;28;20573;-67
2021/01/20 08:42:35;;;;;;;1.20;0.70;;;19.00;99.90;;;;;;5014434;28;20026;-67
2021/01/20 08:45:05;;;;;;;1.38;0.70;;;18.40;99.90;;;;;;5015243;28;20028;-65
2021/01/20 08:47:52;;;;;;;4.25;0.68;;;17.90;99.90;;;;;;5014354;28;20076;-64
2021/01/20 08:50:30;;;;;;;1.80;0.50;;;17.70;99.90;;;;;;5014051;28;20073;-64
2021/01/20 08:53:00;;;;;;;1.15;0.50;;;18.80;99.90;;;;;;5004286;28;20022;-63
2021/01/20 08:55:38;;;;;;;1.20;0.70;;;19.60;99.90;;;;;;5014706;28;20022;-65
2021/01/20 08:58:26;;;;;;;0.82;0.55;;;19.20;99.90;;;;;;5014550;28;20025;-62
2021/01/20 09:01:22;;;;;;;0.85;0.50;;;18.50;99.90;;;;;;5014297;28;20041;-62
2021/01/20 09:04:02;;;;;;;1.30;0.60;;;18.10;99.90;;;;;;5014167;28;20026;-65
2021/01/20 09:06:28;;;;;;;0.55;0.40;;;19.00;99.90;;;;;;5014054;28;20037;-63
2021/01/20 09:08:56;;;;;;;0.70;0.43;;;19.40;99.90;;;;;;5014021;28;20504;-63
2021/01/20 09:11:22;;;;;;;1.85;0.60;;;19.00;99.90;;;;;;5014323;28;20030;-63
2021/01/20 09:13:49;;;;;;;1.48;0.70;;;18.50;99.90;;;;;;5007236;28;20120;-64
2021/01/20 09:16:15;;;;;;;0.98;0.52;;;18.00;99.90;;;;;;5011621;28;20057;-64
2021/01/20 09:18:41;;;;;;;1.55;0.80;;;17.70;99.90;;;;;;5013998;28;20378;-62
2021/01/20 09:21:07;;;;;;;1.10;0.68;;;18.20;99.90;;;;;;4996385;28;20033;-64
2021/01/20 09:23:32;;;;;;;2.20;0.90;;;19.20;99.90;;;;;;5007377;28;20030;-64
2021/01/20 09:25:58;;;;;;;0.98;0.77;;;19.90;99.90;;;;;;5014377;28;20044;-65
2021/01/20 09:28:24;;;;;;;3.22;1.00;;;20.20;99.90;;;;;;5013969;28;20467;-66
2021/01/20 09:30:50;;;;;;;2.17;0.90;;;19.60;99.90;;;;;;5013021;28;20057;-68
2021/01/20 09:33:16;;;;;;;1.20;0.80;;;19.00;99.90;;;;;;5011118;28;20038;-65
2021/01/20 09:35:42;;;;;;;2.58;1.00;;;18.50;99.90;;;;;;5013665;28;20098;-65
2021/01/20 09:38:08;;;;;;;0.85;0.70;;;18.10;99.90;;;;;;5013655;28;20032;-60
2021/01/20 09:40:34;;;;;;;1.52;0.90;;;18.10;99.90;;;;;;5000900;28;20026;-61
2021/01/20 09:43:00;;;;;;;2.28;0.77;;;19.00;99.90;;;;;;5014013;28;20018;-63
2021/01/20 09:45:27;;;;;;;1.63;0.90;;;19.80;99.90;;;;;;5013773;28;20061;-62
2021/01/20 09:47:57;;;;;;;2.42;1.00;;;20.00;99.90;;;;;;5012607;28;20246;-64
2021/01/20 09:50:24;;;;;;;1.77;1.05;;;19.20;99.90;;;;;;5013851;28;20053;-62
2021/01/20 09:52:52;;;;;;;1.73;0.80;;;18.70;99.90;;;;;;5013228;28;20030;-60
2021/01/20 09:55:18;;;;;;;1.55;1.00;;;18.30;99.90;;;;;;5013444;28;20356;-64
2021/01/20 09:57:43;;;;;;;1.55;0.98;;;17.90;99.90;;;;;;5013260;28;20040;-63
2021/01/20 10:00:11;;;;;;;1.20;0.63;;;17.80;99.90;;;;;;4999507;28;20030;-61
2021/01/20 10:02:40;;;;;;;2.22;0.98;;;17.60;99.90;;;;;;4993560;28;20102;-61
2021/01/20 10:05:07;;;;;;;1.30;0.70;;;18.70;99.90;;;;;;5009373;28;20042;-62
2021/01/20 10:07:33;;;;;;;1.77;0.90;;;19.20;99.90;;;;;;5012966;28;20124;-64
2021/01/20 10:09:59;;;;;;;1.33;0.60;;;18.90;99.90;;;;;;5013678;28;20045;-63
2021/01/20 10:12:25;;;;;;;1.05;0.70;;;18.50;99.90;;;;;;5013221;28;20459;-62
2021/01/20 10:14:50;;;;;;;1.02;0.70;;;18.10;99.90;;;;;;5012920;28;20038;-61
2021/01/20 10:17:16;;;;;;;1.73;0.65;;;17.80;99.90;;;;;;5013199;28;20022;-60
2021/01/20 10:19:42;;;;;;;1.67;0.70;;;17.60;99.90;;;;;;5012823;28;20056;-60
2021/01/20 10:22:07;;;;;;;0.88;0.57;;;17.70;99.90;;;;;;5009669;28;20061;-60
2021/01/20 10:24:33;;;;;;;1.38;0.80;;;18.70;99.90;;;;;;5005107;28;20034;-60
2021/01/20 10:26:58;;;;;;;0.80;0.50;;;18.90;99.90;;;;;;5013221;28;20026;-61
2021/01/20 10:29:27;;;;;;;1.02;0.60;;;18.60;99.90;;;;;;5011289;28;20058;-61
2021/01/20 10:31:53;;;;;;;0.85;0.60;;;18.20;99.90;;;;;;5012618;28;20045;-62
2021/01/20 10:34:18;;;;;;;1.30;0.80;;;17.80;99.90;;;;;;5012769;28;20034;-62
2021/01/20 10:36:44;;;;;;;0.70;0.43;;;17.60;99.90;;;;;;5010056;28;20022;-63
2021/01/20 10:39:11;;;;;;;1.33;0.50;;;18.10;99.90;;;;;;5012246;28;20038;-63
2021/01/20 10:41:37;;;;;;;0.73;0.43;;;19.10;99.90;;;;;;5012308;28;20037;-62
2021/01/20 10:44:04;;;;;;;2.15;0.50;;;19.00;99.90;;;;;;5012429;28;20033;-63
2021/01/20 10:46:30;;;;;;;1.13;0.50;;;18.60;99.90;;;;;;5012814;28;20025;-63
2021/01/20 10:48:57;;;;;;;0.60;0.40;;;18.30;99.90;;;;;;5010923;28;20030;-62
2021/01/20 10:51:24;;;;;;;6.35;0.60;;;17.90;99.90;;;;;;5012366;28;20026;-64
2021/01/20 10:53:50;;;;;;;1.92;0.88;;;17.70;99.90;;;;;;5012172;28;20033;-63
2021/01/20 10:56:16;;;;;;;4.40;1.00;;;17.50;99.90;;;;;;5010619;28;20026;-62
2021/01/20 10:58:42;;;;;;;1.63;0.90;;;17.30;99.90;;;;;;4993674;28;20041;-63
2021/01/20 11:01:08;;;;;;;3.15;1.08;;;17.10;99.90;;;;;;4992634;28;20387;-63
2021/01/20 11:03:34;;;;;;;4.63;1.42;;;17.00;99.90;;;;;;4992239;28;20390;-63
2021/01/20 11:06:00;;;;;;;1.42;0.90;;;16.90;99.90;;;;;;4992829;28;20030;-62
2021/01/20 11:08:26;;;;;;;2.72;1.25;;;16.90;99.90;;;;;;5011248;28;20108;-63
2021/01/20 11:10:51;;;;;;;2.60;1.23;;;16.80;99.90;;;;;;5011974;28;20361;-63
2021/01/20 11:13:17;;;;;;;2.50;1.17;;;16.80;99.90;;;;;;5012036;28;20037;-63
2021/01/20 11:15:47;;;;;;;2.28;1.20;;;16.70;99.90;;;;;;5011977;28;20084;-62
2021/01/20 11:18:18;;;;;;;2.33;1.17;;;16.60;99.90;;;;;;5010908;28;20022;-63
2021/01/20 11:20:44;;;;;;;2.05;1.20;;;16.50;99.90;;;;;;5011733;28;20040;-63
2021/01/20 11:23:11;;;;;;;1.67;1.10;;;16.50;99.90;;;;;;5012040;28;20030;-63
2021/01/20 11:25:38;;;;;;;2.20;1.30;;;16.40;99.90;;;;;;5011568;28;20029;-62
2021/01/20 11:28:03;;;;;;;2.72;1.70;;;16.30;99.90;;;;;;4999644;28;20033;-62
2021/01/20 11:30:29;;;;;;;2.38;1.50;;;16.20;99.90;;;;;;4992741;28;20038;-62
2021/01/20 11:32:54;;;;;;;2.92;1.40;;;16.20;99.90;;;;;;4994978;28;20021;-62
2021/01/20 11:35:21;;;;;;;1.98;1.40;;;16.10;99.90;;;;;;5011779;28;20080;-62
2021/01/20 11:37:47;;;;;;;2.88;1.55;;;16.10;99.90;;;;;;5011592;28;20042;-62
2021/01/20 11:40:13;;;;;;;2.75;1.67;;;16.00;99.90;;;;;;5011887;28;20065;-62
2021/01/20 11:42:38;;;;;;;3.13;1.75;;;15.90;99.90;;;;;;5011587;28;20363;-62
2021/01/20 11:45:05;;;;;;;3.55;1.58;;;15.80;99.90;;;;;;5011820;28;20033;-62
2021/01/20 11:47:30;;;;;;;2.50;1.65;;;15.70;99.90;;;;;;5010170;28;20053;-62
2021/01/20 11:49:56;;;;;;;3.45;1.70;;;15.70;99.90;;;;;;5011442;28;20124;-61
2021/01/20 11:52:21;;;;;;;4.82;1.80;;;15.60;99.90;;;;;;5011640;28;20030;-62
2021/01/20 11:54:48;;;;;;;4.53;1.83;;;15.60;99.90;;;;;;5012127;28;20037;-62
2021/01/20 11:57:14;;;;;;;4.63;2.10;;;15.50;99.90;;;;;;5015751;28;20034;-61
2021/01/20 11:59:40;;;;;;;4.55;1.85;;;15.50;99.90;;;;;;5015462;28;20049;-62
2021/01/20 12:02:06;;;;;;;4.45;2.00;;;15.40;99.90;;;;;;5013339;28;20057;-61
2021/01/20 12:04:32;;;;;;;3.88;2.08;;;15.40;99.90;;;;;;5012231;28;20070;-62
2021/01/20 12:06:57;;;;;;;5.25;2.50;;;15.40;99.90;;;;;;5012602;28;20022;-61
2021/01/20 12:09:24;;;;;;;4.70;2.30;;;15.30;99.90;;;;;;5015618;28;20026;-61
2021/01/20 12:11:49;;;;;;;4.15;2.20;;;15.30;99.90;;;;;;5015074;28;20474;-61
2021/01/20 12:14:15;;;;;;;5.07;2.58;;;15.20;99.90;;;;;;5002735;28;20041;-62
2021/01/20 12:16:41;;;;;;;4.22;2.20;;;15.20;99.90;;;;;;5006352;28;20030;-61
2021/01/20 12:19:08;;;;;;;5.95;2.83;;;15.10;99.90;;;;;;5008854;28;20034;-61
2021/01/20 12:21:34;;;;;;;8.38;3.40;;;15.10;99.90;;;;;;5012995;28;20030;-62
2021/01/20 12:24:00;;;;;;;7.80;3.30;;;15.10;99.90;;;;;;5012295;28;20034;-62
2021/01/20 12:26:26;;;;;;;8.48;3.65;;;15.00;99.90;;;;;;5012595;28;20029;-62
2021/01/20 12:28:52;;;;;;;7.90;3.83;;;15.00;99.90;;;;;;5013479;28;20057;-61
2021/01/20 12:31:17;;;;;;;11.38;4.45;;;15.00;99.90;;;;;;5015125;28;20026;-62
2021/01/20 12:33:43;;;;;;;10.70;4.40;;;15.00;99.90;;;;;;5014673;28;20030;-62
2021/01/20 12:36:09;;;;;;;9.52;4.22;;;14.90;99.90;;;;;;5015012;28;20110;-62
2021/01/20 12:38:35;;;;;;;9.07;4.40;;;14.90;99.90;;;;;;5014835;28;20024;-63
2021/01/20 12:41:00;;;;;;;11.43;4.72;;;14.90;99.90;;;;;;5015136;28;20101;-61
2021/01/20 12:43:26;;;;;;;13.05;5.40;;;14.80;99.90;;;;;;5014879;28;20512;-62
2021/01/20 12:45:52;;;;;;;11.57;4.70;;;14.80;99.90;;;;;;5014599;28;20037;-61
2021/01/20 12:48:19;;;;;;;10.10;5.15;;;14.80;99.90;;;;;;5001031;28;20068;-63
2021/01/20 12:50:45;;;;;;;12.20;5.03;;;14.80;99.90;;;;;;5011755;28;20492;-62
2021/01/20 12:53:11;;;;;;;12.05;5.25;;;14.70;99.90;;;;;;5014291;28;20042;-62